Country
Station

 

Weather  for  Worcester, Worcester Regional Airport  -  United States    United States

  
10 °C (50 °F)
    
 
 

Current METAR for Worcester, Worcester Regional Airport is :

KORH 180954Z AUTO 03008KT 10SM OVC048 10/06 A3023 RMK AO2 SLP240 T01000061

 

This is a report for Worcester, Worcester Regional Airport - United States.
 
The report was made 22 minutes ago, at 09:54 UTC .
The wind was blowing at a speed of 4.1 meters per second (9.2 miles per hour) from north/northeast (030°).
 
The temperature was 10 °C (50 °F), with a dew-point at 6 °C (43 °F).
The atmospheric pressure was 1024 hPa (30.23 inHg).
The relative humidity was 76.2%.
 
The sky was overcast from a height of 1463 meter (4800 feet)
 
The overall visibility was 16.1 kilometers (10.0 miles).
 

 
 
 
 

Country :   A   B   C   D   E   F   G   H   I   J   K   L   M   N   O   P   Q   R   S   T   U   V   W   Y   Z

 

Site Info  |  Disclaimer  |  Credits  |  Privacy
Contact us  |  Add to favorites
© 2013-2019 METARs - All rights reserved